Terminal Aerodrome Forecast
Issued by NWS

Home | Current Version | Previous Version | Text Only | Print | Product List | Glossary On
Versions: 1 2 3 4 5 6 7 8 9 10 11 12 13 14 15 16 17
000
FTUS43 KIND 071100
TAFLAF
TAF
KLAF 071120Z 0712/0812 22008KT P6SM VCSH OVC016
     FM071300 26009KT P6SM -SHRA VCTS OVC010CB
     FM071800 33007KT P6SM -SHRA OVC009
     FM080300 01006KT P6SM VCSH OVC010
      AMD LTD TO CLD VIS AND WIND TIL 071300=

USA.gov is the U.S. government's official web portal to all federal, state and local government web resources and services.